sensor_id;sensor_type;location;lat;lon;timestamp;P1;durP1;ratioP1;P2;durP2;ratioP2
22007;SDS011;11168;56.976;24.168;2023-12-20T00:01:30;18.33;;;2.40;;
22007;SDS011;11168;56.976;24.168;2023-12-20T00:03:57;22.17;;;3.17;;
22007;SDS011;11168;56.976;24.168;2023-12-20T00:06:24;14.82;;;2.30;;
22007;SDS011;11168;56.976;24.168;2023-12-20T00:08:56;15.80;;;2.78;;
22007;SDS011;11168;56.976;24.168;2023-12-20T00:11:24;9.98;;;2.00;;
22007;SDS011;11168;56.976;24.168;2023-12-20T00:13:51;17.50;;;3.00;;
22007;SDS011;11168;56.976;24.168;2023-12-20T00:16:19;11.98;;;2.40;;
22007;SDS011;11168;56.976;24.168;2023-12-20T00:18:47;20.90;;;2.67;;
22007;SDS011;11168;56.976;24.168;2023-12-20T00:21:14;13.15;;;2.45;;
22007;SDS011;11168;56.976;24.168;2023-12-20T00:23:41;17.80;;;2.83;;
22007;SDS011;11168;56.976;24.168;2023-12-20T00:26:08;18.15;;;3.15;;
22007;SDS011;11168;56.976;24.168;2023-12-20T00:28:36;21.02;;;3.15;;
22007;SDS011;11168;56.976;24.168;2023-12-20T00:31:05;16.38;;;3.03;;
22007;SDS011;11168;56.976;24.168;2023-12-20T00:33:32;16.45;;;3.28;;
22007;SDS011;11168;56.976;24.168;2023-12-20T00:36:00;19.10;;;3.50;;
22007;SDS011;11168;56.976;24.168;2023-12-20T00:38:30;15.85;;;3.20;;
22007;SDS011;11168;56.976;24.168;2023-12-20T00:40:57;13.70;;;3.13;;
22007;SDS011;11168;56.976;24.168;2023-12-20T00:43:27;22.83;;;3.30;;
22007;SDS011;11168;56.976;24.168;2023-12-20T00:45:55;16.23;;;2.90;;
22007;SDS011;11168;56.976;24.168;2023-12-20T00:48:23;22.70;;;3.45;;
22007;SDS011;11168;56.976;24.168;2023-12-20T00:50:50;19.83;;;3.38;;
22007;SDS011;11168;56.976;24.168;2023-12-20T00:53:17;13.90;;;2.90;;
22007;SDS011;11168;56.976;24.168;2023-12-20T00:55:44;17.65;;;3.15;;
22007;SDS011;11168;56.976;24.168;2023-12-20T00:58:12;20.40;;;3.17;;
22007;SDS011;11168;56.976;24.168;2023-12-20T01:00:44;16.55;;;3.08;;
22007;SDS011;11168;56.976;24.168;2023-12-20T01:03:12;16.27;;;3.33;;
22007;SDS011;11168;56.976;24.168;2023-12-20T01:05:40;16.25;;;3.05;;
22007;SDS011;11168;56.976;24.168;2023-12-20T01:08:08;18.30;;;2.85;;
22007;SDS011;11168;56.976;24.168;2023-12-20T01:10:35;18.70;;;3.65;;
22007;SDS011;11168;56.976;24.168;2023-12-20T01:13:03;18.20;;;2.30;;
22007;SDS011;11168;56.976;24.168;2023-12-20T01:15:31;15.40;;;2.40;;
22007;SDS011;11168;56.976;24.168;2023-12-20T01:17:59;14.73;;;2.22;;
22007;SDS011;11168;56.976;24.168;2023-12-20T01:20:26;11.95;;;2.25;;
22007;SDS011;11168;56.976;24.168;2023-12-20T01:22:53;16.80;;;2.63;;
22007;SDS011;11168;56.976;24.168;2023-12-20T01:25:21;15.02;;;2.50;;
22007;SDS011;11168;56.976;24.168;2023-12-20T01:27:48;23.02;;;2.75;;
22007;SDS011;11168;56.976;24.168;2023-12-20T01:30:15;18.30;;;2.15;;
22007;SDS011;11168;56.976;24.168;2023-12-20T01:32:42;13.38;;;2.35;;
22007;SDS011;11168;56.976;24.168;2023-12-20T01:35:09;20.55;;;2.63;;
22007;SDS011;11168;56.976;24.168;2023-12-20T01:37:39;16.92;;;2.17;;
22007;SDS011;11168;56.976;24.168;2023-12-20T01:40:06;18.30;;;2.42;;
22007;SDS011;11168;56.976;24.168;2023-12-20T01:42:34;18.75;;;2.40;;
22007;SDS011;11168;56.976;24.168;2023-12-20T01:45:01;14.10;;;2.15;;
22007;SDS011;11168;56.976;24.168;2023-12-20T01:47:29;13.80;;;2.13;;
22007;SDS011;11168;56.976;24.168;2023-12-20T01:49:56;19.17;;;2.70;;
22007;SDS011;11168;56.976;24.168;2023-12-20T01:52:24;17.33;;;2.33;;
22007;SDS011;11168;56.976;24.168;2023-12-20T01:54:53;18.73;;;2.08;;
22007;SDS011;11168;56.976;24.168;2023-12-20T01:57:23;21.23;;;2.05;;
22007;SDS011;11168;56.976;24.168;2023-12-20T01:59:50;15.18;;;2.05;;
22007;SDS011;11168;56.976;24.168;2023-12-20T02:02:17;15.55;;;2.20;;
22007;SDS011;11168;56.976;24.168;2023-12-20T02:04:45;15.15;;;1.67;;
22007;SDS011;11168;56.976;24.168;2023-12-20T02:07:12;8.23;;;2.00;;
22007;SDS011;11168;56.976;24.168;2023-12-20T02:09:40;16.42;;;2.53;;
22007;SDS011;11168;56.976;24.168;2023-12-20T02:12:07;10.88;;;1.98;;
22007;SDS011;11168;56.976;24.168;2023-12-20T02:14:34;15.98;;;2.40;;
22007;SDS011;11168;56.976;24.168;2023-12-20T02:17:01;15.77;;;2.38;;
22007;SDS011;11168;56.976;24.168;2023-12-20T02:19:28;15.38;;;2.20;;
22007;SDS011;11168;56.976;24.168;2023-12-20T02:22:06;15.75;;;2.47;;
22007;SDS011;11168;56.976;24.168;2023-12-20T02:24:37;12.30;;;2.08;;
22007;SDS011;11168;56.976;24.168;2023-12-20T02:27:07;14.18;;;2.30;;
22007;SDS011;11168;56.976;24.168;2023-12-20T02:29:35;15.30;;;2.30;;
22007;SDS011;11168;56.976;24.168;2023-12-20T02:32:02;10.57;;;2.25;;
22007;SDS011;11168;56.976;24.168;2023-12-20T02:34:29;13.18;;;2.35;;
22007;SDS011;11168;56.976;24.168;2023-12-20T02:36:57;13.38;;;2.22;;
22007;SDS011;11168;56.976;24.168;2023-12-20T02:39:25;14.10;;;2.08;;
22007;SDS011;11168;56.976;24.168;2023-12-20T02:41:53;16.13;;;2.17;;
22007;SDS011;11168;56.976;24.168;2023-12-20T02:44:20;19.45;;;2.10;;
22007;SDS011;11168;56.976;24.168;2023-12-20T02:46:47;12.75;;;2.35;;
22007;SDS011;11168;56.976;24.168;2023-12-20T02:49:14;19.92;;;2.25;;
22007;SDS011;11168;56.976;24.168;2023-12-20T02:51:42;13.45;;;2.10;;
22007;SDS011;11168;56.976;24.168;2023-12-20T02:54:09;13.30;;;1.98;;
22007;SDS011;11168;56.976;24.168;2023-12-20T02:56:39;11.20;;;2.08;;
22007;SDS011;11168;56.976;24.168;2023-12-20T02:59:06;13.90;;;2.13;;
22007;SDS011;11168;56.976;24.168;2023-12-20T03:01:35;16.13;;;2.20;;
22007;SDS011;11168;56.976;24.168;2023-12-20T03:04:09;17.10;;;1.98;;
22007;SDS011;11168;56.976;24.168;2023-12-20T03:06:36;13.05;;;2.30;;
22007;SDS011;11168;56.976;24.168;2023-12-20T03:09:04;15.25;;;2.83;;
22007;SDS011;11168;56.976;24.168;2023-12-20T03:11:31;12.85;;;2.08;;
22007;SDS011;11168;56.976;24.168;2023-12-20T03:13:58;17.98;;;2.35;;
22007;SDS011;11168;56.976;24.168;2023-12-20T03:16:28;13.10;;;2.38;;
22007;SDS011;11168;56.976;24.168;2023-12-20T03:18:59;17.67;;;2.95;;
22007;SDS011;11168;56.976;24.168;2023-12-20T03:21:26;16.52;;;2.50;;
22007;SDS011;11168;56.976;24.168;2023-12-20T03:23:56;14.93;;;2.47;;
22007;SDS011;11168;56.976;24.168;2023-12-20T03:26:23;18.90;;;2.83;;
22007;SDS011;11168;56.976;24.168;2023-12-20T03:28:50;17.77;;;2.70;;
22007;SDS011;11168;56.976;24.168;2023-12-20T03:31:17;13.95;;;2.45;;
22007;SDS011;11168;56.976;24.168;2023-12-20T03:33:48;13.00;;;2.20;;
22007;SDS011;11168;56.976;24.168;2023-12-20T03:36:19;19.75;;;2.22;;
22007;SDS011;11168;56.976;24.168;2023-12-20T03:38:46;13.50;;;2.75;;
22007;SDS011;11168;56.976;24.168;2023-12-20T03:41:13;18.90;;;3.08;;
22007;SDS011;11168;56.976;24.168;2023-12-20T03:43:41;18.63;;;2.30;;
22007;SDS011;11168;56.976;24.168;2023-12-20T03:46:08;16.95;;;2.67;;
22007;SDS011;11168;56.976;24.168;2023-12-20T03:48:36;11.65;;;2.40;;
22007;SDS011;11168;56.976;24.168;2023-12-20T03:51:03;18.33;;;2.50;;
22007;SDS011;11168;56.976;24.168;2023-12-20T03:53:30;15.70;;;2.35;;
22007;SDS011;11168;56.976;24.168;2023-12-20T03:55:57;16.50;;;2.38;;
22007;SDS011;11168;56.976;24.168;2023-12-20T03:58:26;14.00;;;2.10;;
22007;SDS011;11168;56.976;24.168;2023-12-20T04:00:55;12.98;;;2.22;;
22007;SDS011;11168;56.976;24.168;2023-12-20T04:03:22;14.93;;;2.63;;
22007;SDS011;11168;56.976;24.168;2023-12-20T04:05:52;15.93;;;2.22;;
22007;SDS011;11168;56.976;24.168;2023-12-20T04:08:19;20.42;;;2.50;;
22007;SDS011;11168;56.976;24.168;2023-12-20T04:10:46;20.80;;;2.33;;
22007;SDS011;11168;56.976;24.168;2023-12-20T04:13:14;12.93;;;2.33;;
22007;SDS011;11168;56.976;24.168;2023-12-20T04:15:41;18.05;;;2.13;;
22007;SDS011;11168;56.976;24.168;2023-12-20T04:18:09;14.75;;;2.58;;
22007;SDS011;11168;56.976;24.168;2023-12-20T04:20:36;16.85;;;2.38;;
22007;SDS011;11168;56.976;24.168;2023-12-20T04:23:03;19.88;;;2.28;;
22007;SDS011;11168;56.976;24.168;2023-12-20T04:25:30;13.68;;;2.22;;
22007;SDS011;11168;56.976;24.168;2023-12-20T04:27:57;17.42;;;2.80;;
22007;SDS011;11168;56.976;24.168;2023-12-20T04:30:24;17.38;;;2.42;;
22007;SDS011;11168;56.976;24.168;2023-12-20T04:32:52;19.83;;;2.67;;
22007;SDS011;11168;56.976;24.168;2023-12-20T04:35:21;12.85;;;2.17;;
22007;SDS011;11168;56.976;24.168;2023-12-20T04:37:48;15.32;;;2.40;;
22007;SDS011;11168;56.976;24.168;2023-12-20T04:40:16;17.40;;;2.55;;
22007;SDS011;11168;56.976;24.168;2023-12-20T04:42:46;14.10;;;2.80;;
22007;SDS011;11168;56.976;24.168;2023-12-20T04:45:16;15.23;;;2.58;;
22007;SDS011;11168;56.976;24.168;2023-12-20T04:47:46;11.32;;;2.22;;
22007;SDS011;11168;56.976;24.168;2023-12-20T04:50:14;19.15;;;2.83;;
22007;SDS011;11168;56.976;24.168;2023-12-20T04:52:41;19.95;;;2.42;;
22007;SDS011;11168;56.976;24.168;2023-12-20T04:55:08;20.10;;;2.85;;
22007;SDS011;11168;56.976;24.168;2023-12-20T04:57:36;18.92;;;2.65;;
22007;SDS011;11168;56.976;24.168;2023-12-20T05:00:04;15.15;;;2.55;;
22007;SDS011;11168;56.976;24.168;2023-12-20T05:02:31;16.92;;;2.08;;
22007;SDS011;11168;56.976;24.168;2023-12-20T05:05:00;19.83;;;2.88;;
22007;SDS011;11168;56.976;24.168;2023-12-20T05:07:27;19.13;;;2.30;;
22007;SDS011;11168;56.976;24.168;2023-12-20T05:09:55;19.10;;;2.97;;
22007;SDS011;11168;56.976;24.168;2023-12-20T05:12:23;20.83;;;2.80;;
22007;SDS011;11168;56.976;24.168;2023-12-20T05:14:53;20.27;;;2.80;;
22007;SDS011;11168;56.976;24.168;2023-12-20T05:17:22;13.23;;;2.28;;
22007;SDS011;11168;56.976;24.168;2023-12-20T05:19:49;19.85;;;2.90;;
22007;SDS011;11168;56.976;24.168;2023-12-20T05:22:16;14.98;;;2.47;;
22007;SDS011;11168;56.976;24.168;2023-12-20T05:24:46;21.80;;;3.58;;
22007;SDS011;11168;56.976;24.168;2023-12-20T05:27:14;16.80;;;2.63;;
22007;SDS011;11168;56.976;24.168;2023-12-20T05:29:41;14.52;;;2.80;;
22007;SDS011;11168;56.976;24.168;2023-12-20T05:32:09;22.40;;;3.47;;
22007;SDS011;11168;56.976;24.168;2023-12-20T05:34:36;26.15;;;3.05;;
22007;SDS011;11168;56.976;24.168;2023-12-20T05:37:03;21.88;;;3.42;;
22007;SDS011;11168;56.976;24.168;2023-12-20T05:39:30;14.45;;;2.70;;
22007;SDS011;11168;56.976;24.168;2023-12-20T05:41:58;18.80;;;3.10;;
22007;SDS011;11168;56.976;24.168;2023-12-20T05:44:26;18.40;;;2.75;;
22007;SDS011;11168;56.976;24.168;2023-12-20T05:46:54;18.00;;;3.60;;
22007;SDS011;11168;56.976;24.168;2023-12-20T05:49:21;26.45;;;4.05;;
22007;SDS011;11168;56.976;24.168;2023-12-20T05:51:48;18.13;;;3.30;;
22007;SDS011;11168;56.976;24.168;2023-12-20T05:54:17;14.18;;;3.17;;
22007;SDS011;11168;56.976;24.168;2023-12-20T05:56:44;17.35;;;3.50;;
22007;SDS011;11168;56.976;24.168;2023-12-20T05:59:11;17.58;;;3.67;;
22007;SDS011;11168;56.976;24.168;2023-12-20T06:01:39;20.60;;;4.03;;
22007;SDS011;11168;56.976;24.168;2023-12-20T06:04:06;22.85;;;4.10;;
22007;SDS011;11168;56.976;24.168;2023-12-20T06:06:34;24.67;;;4.55;;
22007;SDS011;11168;56.976;24.168;2023-12-20T06:09:01;18.23;;;3.13;;
22007;SDS011;11168;56.976;24.168;2023-12-20T06:11:29;17.80;;;3.03;;
22007;SDS011;11168;56.976;24.168;2023-12-20T06:13:56;16.20;;;2.83;;
22007;SDS011;11168;56.976;24.168;2023-12-20T06:16:23;21.73;;;3.22;;
22007;SDS011;11168;56.976;24.168;2023-12-20T06:18:52;15.50;;;2.92;;
22007;SDS011;11168;56.976;24.168;2023-12-20T06:21:21;17.35;;;3.70;;
22007;SDS011;11168;56.976;24.168;2023-12-20T06:23:48;20.52;;;3.30;;
22007;SDS011;11168;56.976;24.168;2023-12-20T06:26:15;20.50;;;3.17;;
22007;SDS011;11168;56.976;24.168;2023-12-20T06:28:42;19.25;;;2.97;;
22007;SDS011;11168;56.976;24.168;2023-12-20T06:31:10;18.80;;;2.70;;
22007;SDS011;11168;56.976;24.168;2023-12-20T06:33:38;17.20;;;3.08;;
22007;SDS011;11168;56.976;24.168;2023-12-20T06:36:10;19.53;;;3.10;;
22007;SDS011;11168;56.976;24.168;2023-12-20T06:38:38;16.25;;;2.83;;
22007;SDS011;11168;56.976;24.168;2023-12-20T06:41:06;19.15;;;3.20;;
22007;SDS011;11168;56.976;24.168;2023-12-20T06:43:33;23.67;;;3.95;;
22007;SDS011;11168;56.976;24.168;2023-12-20T06:46:14;17.05;;;3.38;;
22007;SDS011;11168;56.976;24.168;2023-12-20T06:48:44;19.45;;;3.40;;
22007;SDS011;11168;56.976;24.168;2023-12-20T06:51:14;17.40;;;3.40;;
22007;SDS011;11168;56.976;24.168;2023-12-20T06:53:43;21.67;;;3.53;;
22007;SDS011;11168;56.976;24.168;2023-12-20T06:56:11;15.45;;;4.18;;
22007;SDS011;11168;56.976;24.168;2023-12-20T06:58:44;23.63;;;4.72;;
22007;SDS011;11168;56.976;24.168;2023-12-20T07:01:12;17.85;;;4.45;;
22007;SDS011;11168;56.976;24.168;2023-12-20T07:03:56;18.95;;;4.15;;
22007;SDS011;11168;56.976;24.168;2023-12-20T07:06:39;26.23;;;5.43;;
22007;SDS011;11168;56.976;24.168;2023-12-20T07:09:09;22.20;;;5.00;;
22007;SDS011;11168;56.976;24.168;2023-12-20T07:11:37;18.35;;;4.85;;
22007;SDS011;11168;56.976;24.168;2023-12-20T07:14:04;22.17;;;4.32;;
22007;SDS011;11168;56.976;24.168;2023-12-20T07:16:31;24.70;;;6.18;;
22007;SDS011;11168;56.976;24.168;2023-12-20T07:18:59;20.75;;;5.68;;
22007;SDS011;11168;56.976;24.168;2023-12-20T07:21:27;22.15;;;5.80;;
22007;SDS011;11168;56.976;24.168;2023-12-20T07:23:55;17.95;;;5.03;;
22007;SDS011;11168;56.976;24.168;2023-12-20T07:26:22;24.35;;;6.53;;
22007;SDS011;11168;56.976;24.168;2023-12-20T07:28:50;19.70;;;5.18;;
22007;SDS011;11168;56.976;24.168;2023-12-20T07:31:18;22.67;;;5.18;;
22007;SDS011;11168;56.976;24.168;2023-12-20T07:33:45;20.60;;;5.45;;
22007;SDS011;11168;56.976;24.168;2023-12-20T07:36:13;20.98;;;4.68;;
22007;SDS011;11168;56.976;24.168;2023-12-20T07:38:41;21.63;;;5.53;;
22007;SDS011;11168;56.976;24.168;2023-12-20T07:41:11;23.92;;;5.28;;
22007;SDS011;11168;56.976;24.168;2023-12-20T07:43:44;17.98;;;5.13;;
22007;SDS011;11168;56.976;24.168;2023-12-20T07:46:12;17.17;;;5.32;;
22007;SDS011;11168;56.976;24.168;2023-12-20T07:48:40;19.15;;;4.93;;
22007;SDS011;11168;56.976;24.168;2023-12-20T07:51:11;19.90;;;4.50;;
22007;SDS011;11168;56.976;24.168;2023-12-20T07:53:38;24.55;;;5.03;;
22007;SDS011;11168;56.976;24.168;2023-12-20T07:56:18;17.83;;;4.80;;
22007;SDS011;11168;56.976;24.168;2023-12-20T07:58:46;20.38;;;5.07;;
22007;SDS011;11168;56.976;24.168;2023-12-20T08:01:19;13.50;;;3.75;;
22007;SDS011;11168;56.976;24.168;2023-12-20T08:03:48;17.88;;;4.38;;
22007;SDS011;11168;56.976;24.168;2023-12-20T08:06:18;21.17;;;4.78;;
22007;SDS011;11168;56.976;24.168;2023-12-20T08:08:46;20.20;;;5.50;;
22007;SDS011;11168;56.976;24.168;2023-12-20T08:11:26;25.40;;;6.38;;
22007;SDS011;11168;56.976;24.168;2023-12-20T08:13:54;21.42;;;5.57;;
22007;SDS011;11168;56.976;24.168;2023-12-20T08:16:22;20.92;;;5.20;;
22007;SDS011;11168;56.976;24.168;2023-12-20T08:18:50;14.90;;;4.43;;
22007;SDS011;11168;56.976;24.168;2023-12-20T08:21:19;18.67;;;4.03;;
22007;SDS011;11168;56.976;24.168;2023-12-20T08:23:48;15.23;;;3.20;;
22007;SDS011;11168;56.976;24.168;2023-12-20T08:26:18;15.85;;;3.58;;
22007;SDS011;11168;56.976;24.168;2023-12-20T08:28:50;19.30;;;3.72;;
22007;SDS011;11168;56.976;24.168;2023-12-20T08:31:17;18.10;;;5.40;;
22007;SDS011;11168;56.976;24.168;2023-12-20T08:33:46;23.88;;;4.78;;
22007;SDS011;11168;56.976;24.168;2023-12-20T08:36:15;29.05;;;7.10;;
22007;SDS011;11168;56.976;24.168;2023-12-20T08:38:44;25.45;;;6.80;;
22007;SDS011;11168;56.976;24.168;2023-12-20T08:41:12;28.73;;;6.38;;
22007;SDS011;11168;56.976;24.168;2023-12-20T08:43:39;20.58;;;5.38;;
22007;SDS011;11168;56.976;24.168;2023-12-20T08:46:07;22.63;;;5.20;;
22007;SDS011;11168;56.976;24.168;2023-12-20T08:48:44;23.95;;;5.72;;
22007;SDS011;11168;56.976;24.168;2023-12-20T08:51:13;21.17;;;5.60;;
22007;SDS011;11168;56.976;24.168;2023-12-20T08:53:41;19.50;;;5.28;;
22007;SDS011;11168;56.976;24.168;2023-12-20T08:56:08;29.27;;;6.60;;
22007;SDS011;11168;56.976;24.168;2023-12-20T08:58:37;18.70;;;5.55;;
22007;SDS011;11168;56.976;24.168;2023-12-20T09:01:05;27.52;;;5.63;;
22007;SDS011;11168;56.976;24.168;2023-12-20T09:03:33;24.70;;;4.97;;
22007;SDS011;11168;56.976;24.168;2023-12-20T09:06:03;18.55;;;5.43;;
22007;SDS011;11168;56.976;24.168;2023-12-20T09:08:32;21.13;;;5.47;;
22007;SDS011;11168;56.976;24.168;2023-12-20T09:10:59;19.10;;;4.72;;
22007;SDS011;11168;56.976;24.168;2023-12-20T09:13:27;18.90;;;5.10;;
22007;SDS011;11168;56.976;24.168;2023-12-20T09:15:55;17.65;;;5.13;;
22007;SDS011;11168;56.976;24.168;2023-12-20T09:18:23;19.10;;;4.70;;
22007;SDS011;11168;56.976;24.168;2023-12-20T09:20:51;16.92;;;4.57;;
22007;SDS011;11168;56.976;24.168;2023-12-20T09:23:18;20.60;;;4.65;;
22007;SDS011;11168;56.976;24.168;2023-12-20T09:25:47;18.27;;;4.85;;
22007;SDS011;11168;56.976;24.168;2023-12-20T09:28:15;14.73;;;3.33;;
22007;SDS011;11168;56.976;24.168;2023-12-20T09:30:44;15.98;;;3.92;;
22007;SDS011;11168;56.976;24.168;2023-12-20T09:33:26;13.55;;;3.83;;
22007;SDS011;11168;56.976;24.168;2023-12-20T09:35:54;13.77;;;3.22;;
22007;SDS011;11168;56.976;24.168;2023-12-20T09:38:22;14.48;;;4.32;;
22007;SDS011;11168;56.976;24.168;2023-12-20T09:41:05;14.05;;;3.85;;
22007;SDS011;11168;56.976;24.168;2023-12-20T09:43:33;16.65;;;3.38;;
22007;SDS011;11168;56.976;24.168;2023-12-20T09:46:05;15.10;;;3.28;;
22007;SDS011;11168;56.976;24.168;2023-12-20T09:48:37;12.77;;;3.47;;
22007;SDS011;11168;56.976;24.168;2023-12-20T09:51:05;14.75;;;3.38;;
22007;SDS011;11168;56.976;24.168;2023-12-20T09:53:32;18.60;;;4.07;;
22007;SDS011;11168;56.976;24.168;2023-12-20T09:56:03;14.32;;;3.53;;
22007;SDS011;11168;56.976;24.168;2023-12-20T09:58:36;12.95;;;4.28;;
22007;SDS011;11168;56.976;24.168;2023-12-20T10:01:05;11.73;;;3.50;;
22007;SDS011;11168;56.976;24.168;2023-12-20T10:03:34;18.25;;;4.25;;
22007;SDS011;11168;56.976;24.168;2023-12-20T10:06:02;18.52;;;4.60;;
22007;SDS011;11168;56.976;24.168;2023-12-20T10:08:31;17.33;;;4.57;;
22007;SDS011;11168;56.976;24.168;2023-12-20T10:10:59;14.43;;;4.30;;
22007;SDS011;11168;56.976;24.168;2023-12-20T10:13:30;14.38;;;4.38;;
22007;SDS011;11168;56.976;24.168;2023-12-20T10:15:57;15.93;;;3.90;;
22007;SDS011;11168;56.976;24.168;2023-12-20T10:18:24;17.95;;;3.85;;
22007;SDS011;11168;56.976;24.168;2023-12-20T10:21:04;17.27;;;4.30;;
22007;SDS011;11168;56.976;24.168;2023-12-20T10:23:33;15.40;;;4.75;;
22007;SDS011;11168;56.976;24.168;2023-12-20T10:26:01;13.52;;;3.92;;
22007;SDS011;11168;56.976;24.168;2023-12-20T10:28:32;19.90;;;4.03;;
22007;SDS011;11168;56.976;24.168;2023-12-20T10:31:01;17.67;;;4.15;;
22007;SDS011;11168;56.976;24.168;2023-12-20T10:33:30;13.18;;;3.85;;
22007;SDS011;11168;56.976;24.168;2023-12-20T10:36:01;14.13;;;3.75;;
22007;SDS011;11168;56.976;24.168;2023-12-20T10:38:29;15.20;;;4.68;;
22007;SDS011;11168;56.976;24.168;2023-12-20T10:40:57;16.05;;;3.70;;
22007;SDS011;11168;56.976;24.168;2023-12-20T10:43:28;16.77;;;4.57;;
22007;SDS011;11168;56.976;24.168;2023-12-20T10:45:58;19.42;;;4.15;;
22007;SDS011;11168;56.976;24.168;2023-12-20T10:48:26;13.52;;;2.97;;
22007;SDS011;11168;56.976;24.168;2023-12-20T10:53:24;13.18;;;3.70;;
22007;SDS011;11168;56.976;24.168;2023-12-20T10:55:55;12.73;;;3.58;;
22007;SDS011;11168;56.976;24.168;2023-12-20T10:58:24;13.25;;;3.72;;
22007;SDS011;11168;56.976;24.168;2023-12-20T11:00:56;12.88;;;3.30;;
22007;SDS011;11168;56.976;24.168;2023-12-20T11:03:54;12.32;;;3.65;;
22007;SDS011;11168;56.976;24.168;2023-12-20T11:12:01;13.98;;;3.67;;
22007;SDS011;11168;56.976;24.168;2023-12-20T11:14:47;12.63;;;3.17;;
22007;SDS011;11168;56.976;24.168;2023-12-20T11:17:31;15.57;;;3.13;;
22007;SDS011;11168;56.976;24.168;2023-12-20T11:22:33;14.35;;;3.75;;
22007;SDS011;11168;56.976;24.168;2023-12-20T11:27:41;13.98;;;3.75;;
22007;SDS011;11168;56.976;24.168;2023-12-20T11:30:17;16.10;;;4.38;;
22007;SDS011;11168;56.976;24.168;2023-12-20T11:32:45;16.63;;;4.75;;
22007;SDS011;11168;56.976;24.168;2023-12-20T11:35:27;16.98;;;4.95;;
22007;SDS011;11168;56.976;24.168;2023-12-20T11:37:55;16.75;;;4.53;;
22007;SDS011;11168;56.976;24.168;2023-12-20T11:40:26;15.90;;;4.65;;
22007;SDS011;11168;56.976;24.168;2023-12-20T11:42:53;15.98;;;4.55;;
22007;SDS011;11168;56.976;24.168;2023-12-20T11:45:23;14.98;;;3.95;;
22007;SDS011;11168;56.976;24.168;2023-12-20T11:47:55;14.40;;;3.80;;
22007;SDS011;11168;56.976;24.168;2023-12-20T11:50:24;14.32;;;3.50;;
22007;SDS011;11168;56.976;24.168;2023-12-20T11:52:52;12.32;;;3.30;;
22007;SDS011;11168;56.976;24.168;2023-12-20T11:55:22;17.70;;;3.40;;
22007;SDS011;11168;56.976;24.168;2023-12-20T11:57:50;11.35;;;3.45;;
22007;SDS011;11168;56.976;24.168;2023-12-20T12:00:20;16.83;;;4.10;;
22007;SDS011;11168;56.976;24.168;2023-12-20T12:02:57;17.27;;;3.83;;
22007;SDS011;11168;56.976;24.168;2023-12-20T12:05:26;13.88;;;3.90;;
22007;SDS011;11168;56.976;24.168;2023-12-20T12:07:54;16.58;;;4.45;;
22007;SDS011;11168;56.976;24.168;2023-12-20T12:10:22;17.55;;;4.90;;
22007;SDS011;11168;56.976;24.168;2023-12-20T12:12:50;14.68;;;4.93;;
22007;SDS011;11168;56.976;24.168;2023-12-20T12:15:17;19.65;;;6.35;;
22007;SDS011;11168;56.976;24.168;2023-12-20T12:17:52;19.02;;;7.07;;
22007;SDS011;11168;56.976;24.168;2023-12-20T12:20:26;20.92;;;6.72;;
22007;SDS011;11168;56.976;24.168;2023-12-20T12:23:03;19.92;;;7.78;;
22007;SDS011;11168;56.976;24.168;2023-12-20T12:25:32;23.00;;;8.80;;
22007;SDS011;11168;56.976;24.168;2023-12-20T12:28:04;26.25;;;9.13;;
22007;SDS011;11168;56.976;24.168;2023-12-20T12:30:32;23.50;;;8.25;;
22007;SDS011;11168;56.976;24.168;2023-12-20T12:33:04;25.23;;;8.50;;
22007;SDS011;11168;56.976;24.168;2023-12-20T12:35:32;24.13;;;8.13;;
22007;SDS011;11168;56.976;24.168;2023-12-20T12:37:59;25.33;;;8.52;;
22007;SDS011;11168;56.976;24.168;2023-12-20T12:40:27;24.30;;;8.93;;
22007;SDS011;11168;56.976;24.168;2023-12-20T12:42:55;20.33;;;8.70;;
22007;SDS011;11168;56.976;24.168;2023-12-20T12:45:22;28.73;;;10.25;;
22007;SDS011;11168;56.976;24.168;2023-12-20T12:47:49;18.23;;;6.75;;
22007;SDS011;11168;56.976;24.168;2023-12-20T12:50:16;28.05;;;8.57;;
22007;SDS011;11168;56.976;24.168;2023-12-20T12:52:44;23.40;;;6.38;;
22007;SDS011;11168;56.976;24.168;2023-12-20T12:55:11;20.02;;;5.57;;
22007;SDS011;11168;56.976;24.168;2023-12-20T12:57:41;16.25;;;5.47;;
22007;SDS011;11168;56.976;24.168;2023-12-20T13:00:08;14.77;;;5.75;;
22007;SDS011;11168;56.976;24.168;2023-12-20T13:02:37;23.23;;;7.30;;
22007;SDS011;11168;56.976;24.168;2023-12-20T13:05:08;26.45;;;7.10;;
22007;SDS011;11168;56.976;24.168;2023-12-20T13:07:36;16.88;;;5.68;;
22007;SDS011;11168;56.976;24.168;2023-12-20T13:10:04;19.02;;;5.20;;
22007;SDS011;11168;56.976;24.168;2023-12-20T13:12:32;15.38;;;4.78;;
22007;SDS011;11168;56.976;24.168;2023-12-20T13:15:00;18.08;;;5.10;;
22007;SDS011;11168;56.976;24.168;2023-12-20T13:17:27;19.15;;;4.15;;
22007;SDS011;11168;56.976;24.168;2023-12-20T13:19:57;13.63;;;4.63;;
22007;SDS011;11168;56.976;24.168;2023-12-20T13:22:26;15.38;;;4.20;;
22007;SDS011;11168;56.976;24.168;2023-12-20T13:24:53;17.77;;;4.72;;
22007;SDS011;11168;56.976;24.168;2023-12-20T13:27:21;16.10;;;4.05;;
22007;SDS011;11168;56.976;24.168;2023-12-20T13:29:48;21.10;;;5.07;;
22007;SDS011;11168;56.976;24.168;2023-12-20T13:32:15;20.58;;;4.10;;
22007;SDS011;11168;56.976;24.168;2023-12-20T13:34:42;14.93;;;4.97;;
22007;SDS011;11168;56.976;24.168;2023-12-20T13:37:10;12.00;;;3.70;;
22007;SDS011;11168;56.976;24.168;2023-12-20T13:39:37;18.90;;;4.20;;
22007;SDS011;11168;56.976;24.168;2023-12-20T13:42:06;17.73;;;4.20;;
22007;SDS011;11168;56.976;24.168;2023-12-20T13:44:33;13.73;;;4.18;;
22007;SDS011;11168;56.976;24.168;2023-12-20T13:47:00;16.00;;;3.88;;
22007;SDS011;11168;56.976;24.168;2023-12-20T13:49:28;17.02;;;4.07;;
22007;SDS011;11168;56.976;24.168;2023-12-20T13:51:57;16.85;;;4.85;;
22007;SDS011;11168;56.976;24.168;2023-12-20T13:54:25;16.50;;;4.30;;
22007;SDS011;11168;56.976;24.168;2023-12-20T13:56:52;17.35;;;4.55;;
22007;SDS011;11168;56.976;24.168;2023-12-20T13:59:38;16.75;;;4.43;;
22007;SDS011;11168;56.976;24.168;2023-12-20T14:02:05;18.67;;;4.95;;
22007;SDS011;11168;56.976;24.168;2023-12-20T14:04:33;14.98;;;4.47;;
22007;SDS011;11168;56.976;24.168;2023-12-20T14:07:09;17.08;;;4.88;;
22007;SDS011;11168;56.976;24.168;2023-12-20T14:09:40;15.57;;;5.07;;
22007;SDS011;11168;56.976;24.168;2023-12-20T14:12:13;19.75;;;5.32;;
22007;SDS011;11168;56.976;24.168;2023-12-20T14:14:40;16.95;;;4.88;;
22007;SDS011;11168;56.976;24.168;2023-12-20T14:17:08;23.20;;;5.10;;
22007;SDS011;11168;56.976;24.168;2023-12-20T14:19:39;17.08;;;5.05;;
22007;SDS011;11168;56.976;24.168;2023-12-20T14:22:09;17.35;;;4.70;;
22007;SDS011;11168;56.976;24.168;2023-12-20T14:24:39;17.05;;;4.40;;
22007;SDS011;11168;56.976;24.168;2023-12-20T14:27:05;17.45;;;4.22;;
22007;SDS011;11168;56.976;24.168;2023-12-20T14:29:33;15.18;;;4.25;;
22007;SDS011;11168;56.976;24.168;2023-12-20T14:32:00;13.32;;;3.67;;
22007;SDS011;11168;56.976;24.168;2023-12-20T14:34:32;14.70;;;4.15;;
22007;SDS011;11168;56.976;24.168;2023-12-20T14:37:16;14.00;;;4.10;;
22007;SDS011;11168;56.976;24.168;2023-12-20T14:39:44;11.32;;;4.10;;
22007;SDS011;11168;56.976;24.168;2023-12-20T14:42:12;16.88;;;4.07;;
22007;SDS011;11168;56.976;24.168;2023-12-20T14:44:40;12.38;;;4.53;;